createdAt,value
2019-03-08T05:03:28.745Z,0
2019-03-08T05:07:05.280Z,0
2019-03-08T05:10:33.248Z,0
2019-03-08T05:14:01.091Z,0
2019-03-08T05:17:28.946Z,0
2019-03-08T05:20:56.864Z,0
2019-03-08T05:24:24.709Z,0
2019-03-08T05:27:52.573Z,0
2019-03-08T05:31:20.545Z,0
2019-03-08T05:34:48.385Z,0
2019-03-08T05:38:16.259Z,0
2019-03-08T05:41:44.116Z,0
2019-03-08T05:45:11.972Z,0
2019-03-08T05:48:39.845Z,0
2019-03-08T05:52:07.819Z,0
2019-03-08T05:55:35.662Z,0
2019-03-08T05:59:03.520Z,5.625
2019-03-08T06:02:31.382Z,5.625
2019-03-08T06:05:59.233Z,5.625
2019-03-08T06:09:27.193Z,5.625
2019-03-08T06:12:55.044Z,11.25
2019-03-08T06:16:22.887Z,5.625
2019-03-08T06:19:50.736Z,22.5
2019-03-08T06:23:18.591Z,39.375
2019-03-08T06:26:46.439Z,33.75
2019-03-08T06:30:14.282Z,50.625
2019-03-08T06:33:43.133Z,50.625
2019-03-08T06:37:10.984Z,50.625
2019-03-08T06:40:38.823Z,28.125
2019-03-08T06:44:06.674Z,39.375
2019-03-08T06:47:34.547Z,39.375
2019-03-08T06:51:02.396Z,33.75
2019-03-08T06:54:30.294Z,28.125
2019-03-08T06:57:58.147Z,45
2019-03-08T07:01:25.992Z,50.625
2019-03-08T07:04:53.838Z,28.125
2019-03-08T07:08:21.690Z,39.375
2019-03-08T07:11:49.538Z,50.625
2019-03-08T07:15:17.376Z,50.625
2019-03-08T07:18:45.223Z,50.625
2019-03-08T07:22:13.082Z,56.25
2019-03-08T07:25:40.922Z,61.875
2019-03-08T07:29:10.762Z,50.625
2019-03-08T07:32:39.622Z,50.625
2019-03-08T07:36:07.445Z,50.625
2019-03-08T07:39:35.294Z,50.625
2019-03-08T07:43:03.142Z,67.5
2019-03-08T07:46:31.012Z,78.75
2019-03-08T07:49:58.865Z,67.5
2019-03-08T07:53:26.717Z,67.5
2019-03-08T07:56:54.558Z,78.75
2019-03-08T08:00:22.421Z,84.375
2019-03-08T08:03:50.278Z,67.5
2019-03-08T08:07:18.128Z,61.875
2019-03-08T08:10:45.976Z,61.875
2019-03-08T08:14:13.837Z,61.875
2019-03-08T08:17:41.697Z,73.125
2019-03-08T08:21:09.791Z,67.5
2019-03-08T08:24:37.778Z,67.5
2019-03-08T08:28:05.655Z,90
2019-03-08T08:31:33.658Z,106.875
2019-03-08T08:35:01.527Z,78.75
2019-03-08T08:38:29.415Z,61.875
2019-03-08T08:41:57.309Z,50.625
2019-03-08T08:45:25.161Z,101.25
2019-03-08T08:48:53.085Z,129.375
2019-03-08T08:52:21.010Z,146.25
2019-03-08T08:55:48.894Z,129.375
2019-03-08T08:59:16.774Z,123.75
2019-03-08T09:02:44.626Z,118.125
2019-03-08T09:06:12.520Z,163.125
2019-03-08T09:09:40.440Z,174.375
2019-03-08T09:13:08.328Z,225
2019-03-08T09:16:36.200Z,168.75
2019-03-08T09:20:04.122Z,191.25
2019-03-08T09:23:31.986Z,202.5
2019-03-08T09:26:59.954Z,236.25
2019-03-08T09:30:27.923Z,303.75
2019-03-08T09:33:55.794Z,196.875
2019-03-08T09:37:23.683Z,264.375
2019-03-08T09:40:51.577Z,264.375
2019-03-08T09:44:20.500Z,286.875
2019-03-08T09:47:48.365Z,286.875
2019-03-08T09:51:16.206Z,360
2019-03-08T09:54:45.048Z,303.75
2019-03-08T09:58:12.895Z,264.375
2019-03-08T10:01:40.745Z,416.25
2019-03-08T10:05:09.574Z,410.625
2019-03-08T10:08:37.423Z,388.125
2019-03-08T10:12:05.272Z,303.75
2019-03-08T10:15:33.115Z,326.25
2019-03-08T10:19:00.971Z,309.375
2019-03-08T10:22:28.823Z,337.5
2019-03-08T10:25:56.695Z,298.125
2019-03-08T10:29:25.540Z,315
2019-03-08T10:32:53.389Z,348.75
2019-03-08T10:36:21.240Z,348.75
2019-03-08T10:39:49.096Z,405
2019-03-08T10:43:16.957Z,399.375
2019-03-08T10:46:44.800Z,495
2019-03-08T10:50:12.650Z,483.75
2019-03-08T10:53:40.504Z,500.625
2019-03-08T10:57:08.346Z,517.5
2019-03-08T11:00:36.198Z,534.375
2019-03-08T11:04:05.932Z,652.5
2019-03-08T11:07:40.910Z,534.375
2019-03-08T11:11:10.766Z,416.25
2019-03-08T11:14:38.642Z,433.125
2019-03-08T11:18:06.483Z,399.375
2019-03-08T11:21:35.360Z,1822.5
2019-03-08T11:25:08.346Z,1366.875
2019-03-08T11:28:36.084Z,1490.625
2019-03-08T11:32:03.953Z,2002.5
2019-03-08T11:35:31.842Z,1642.5
2019-03-08T11:38:59.732Z,399.375
2019-03-08T11:42:27.659Z,2520
2019-03-08T11:45:56.535Z,2829.375
2019-03-08T11:49:24.407Z,2801.25
2019-03-08T11:52:52.309Z,1119.375
2019-03-08T11:56:21.003Z,2632.5
2019-03-08T11:59:49.957Z,2750.625
2019-03-08T12:03:17.813Z,2908.125
2019-03-08T12:06:46.615Z,2992.5
2019-03-08T12:10:15.201Z,2964.375
2019-03-08T12:13:43.096Z,3003.75
2019-03-08T12:17:12.018Z,3178.125
2019-03-08T12:20:40.737Z,3144.375
2019-03-08T12:24:08.637Z,3155.625
2019-03-08T12:27:36.574Z,2846.25
2019-03-08T12:31:05.461Z,3183.75
2019-03-08T12:34:33.363Z,3262.5
2019-03-08T12:38:01.215Z,2823.75
2019-03-08T12:41:29.191Z,2441.25
2019-03-08T12:44:57.080Z,3408.75
2019-03-08T12:48:27.007Z,3442.5
2019-03-08T12:51:54.929Z,3217.5
2019-03-08T12:55:22.869Z,3375
2019-03-08T12:58:50.787Z,3341.25
2019-03-08T13:02:18.679Z,3391.875
2019-03-08T13:05:46.581Z,3245.625
2019-03-08T13:09:16.457Z,3262.5
2019-03-08T13:12:44.337Z,2233.125
2019-03-08T13:16:12.214Z,3065.625
2019-03-08T13:19:40.081Z,3211.875
2019-03-08T13:23:07.963Z,3279.375
2019-03-08T13:26:35.846Z,2373.75
2019-03-08T13:30:03.812Z,2480.625
2019-03-08T13:33:33.665Z,2986.875
2019-03-08T13:37:01.515Z,1845
2019-03-08T13:40:29.390Z,1816.875
2019-03-08T13:43:57.236Z,2919.375
2019-03-08T13:47:26.108Z,1406.25
2019-03-08T13:50:54.978Z,2975.625
2019-03-08T13:54:22.843Z,2930.625
2019-03-08T13:57:50.730Z,2902.5
2019-03-08T14:01:18.695Z,2233.125
2019-03-08T14:04:46.571Z,1327.5
2019-03-08T14:08:14.453Z,1299.375
2019-03-08T14:11:42.334Z,1051.875
2019-03-08T14:15:11.215Z,1816.875
2019-03-08T14:18:39.103Z,905.625
2019-03-08T14:22:07.637Z,2300.625
2019-03-08T14:25:36.503Z,2199.375
2019-03-08T14:29:04.432Z,1974.375
2019-03-08T14:32:32.307Z,675
2019-03-08T14:36:02.876Z,1743.75
2019-03-08T14:39:32.097Z,585
2019-03-08T14:42:59.986Z,860.625
2019-03-08T14:46:28.595Z,1096.875
2019-03-08T14:50:00.593Z,2143.125
2019-03-08T14:53:32.632Z,320.625
2019-03-08T14:57:00.427Z,1220.625
2019-03-08T15:00:31.296Z,573.75
2019-03-08T15:04:01.187Z,337.5
2019-03-08T15:07:29.078Z,354.375
2019-03-08T15:10:56.947Z,309.375
2019-03-08T15:14:24.817Z,286.875
2019-03-08T15:17:55.697Z,348.75
2019-03-08T15:21:23.547Z,253.125
2019-03-08T15:24:54.757Z,247.5
2019-03-08T15:28:21.564Z,1068.75
2019-03-08T15:31:49.444Z,736.875
2019-03-08T15:35:17.362Z,236.25
2019-03-08T15:38:45.265Z,219.375
2019-03-08T15:42:13.154Z,196.875
2019-03-08T15:45:46.166Z,180
2019-03-08T15:49:13.824Z,163.125
2019-03-08T15:52:41.692Z,157.5
2019-03-08T15:56:09.534Z,157.5
2019-03-08T15:59:37.451Z,135
2019-03-08T16:03:06.317Z,112.5
2019-03-08T16:06:34.182Z,95.625
2019-03-08T16:10:03.101Z,106.875
2019-03-08T16:13:31.991Z,84.375
2019-03-08T16:16:59.844Z,56.25
2019-03-08T16:20:27.803Z,56.25
2019-03-08T16:24:02.723Z,39.375
2019-03-08T16:27:30.570Z,39.375
2019-03-08T16:30:58.423Z,33.75
2019-03-08T16:34:26.309Z,33.75
2019-03-08T16:37:54.165Z,33.75
2019-03-08T16:41:22.011Z,22.5
2019-03-08T16:44:49.890Z,16.875
2019-03-08T16:48:17.757Z,11.25
2019-03-08T16:51:45.655Z,11.25
2019-03-08T16:55:13.624Z,5.625
2019-03-08T16:58:41.493Z,5.625
2019-03-08T17:02:09.449Z,0
2019-03-08T17:05:37.326Z,0
2019-03-08T17:09:05.204Z,0
2019-03-08T17:12:33.123Z,0
2019-03-08T17:16:01.968Z,0
2019-03-08T17:19:29.849Z,0
2019-03-08T17:22:57.679Z,0
2019-03-08T17:26:26.541Z,0
2019-03-08T17:29:54.392Z,0
2019-03-08T17:33:22.238Z,0
2019-03-08T17:36:50.109Z,0
2019-03-08T17:40:17.987Z,0
2019-03-08T17:43:46.823Z,0
2019-03-08T17:47:14.702Z,0
2019-03-08T17:50:42.583Z,0
2019-03-08T17:54:10.434Z,0
2019-03-08T17:57:38.305Z,0
2019-03-08T18:01:06.170Z,0
2019-03-08T18:04:34.030Z,0
2019-03-08T18:08:01.893Z,0
2019-03-08T18:11:30.760Z,0
2019-03-08T18:15:07.760Z,0
2019-03-08T18:18:35.618Z,0
2019-03-08T18:22:06.868Z,0
2019-03-08T18:25:34.732Z,0
2019-03-08T18:29:02.601Z,0
2019-03-08T18:32:30.471Z,0
2019-03-08T18:35:59.258Z,0
2019-03-08T18:39:27.126Z,0
2019-03-08T18:42:55.008Z,0
2019-03-08T18:46:23.622Z,0
2019-03-08T18:49:51.496Z,0
2019-03-08T18:53:19.353Z,0
2019-03-08T18:56:47.223Z,0
2019-03-08T19:00:15.090Z,0
2019-03-08T19:03:48.753Z,0
2019-03-08T19:07:17.060Z,0
2019-03-08T19:10:44.964Z,0
2019-03-08T19:14:12.857Z,0
2019-03-08T19:17:40.738Z,0
2019-03-08T19:21:08.636Z,0
2019-03-08T19:24:36.578Z,0
2019-03-08T19:28:04.442Z,0
2019-03-08T19:31:32.337Z,0
2019-03-08T19:35:00.302Z,0
2019-03-08T19:38:28.072Z,0
2019-03-08T19:41:56.069Z,0
2019-03-08T19:45:24.940Z,0
2019-03-08T19:48:52.853Z,0
2019-03-08T19:52:24.140Z,0
2019-03-08T19:55:52.033Z,0
2019-03-08T19:59:20.009Z,0
2019-03-08T20:02:49.045Z,0
2019-03-08T20:06:22.162Z,0
2019-03-08T20:09:50.100Z,0
2019-03-08T20:13:22.071Z,0
2019-03-08T20:16:54.648Z,0
2019-03-08T20:20:24.622Z,0
2019-03-08T20:23:52.492Z,0
2019-03-08T20:27:20.395Z,0
2019-03-08T20:30:48.318Z,0
2019-03-08T20:34:17.204Z,0
2019-03-08T20:37:45.067Z,0
2019-03-08T20:41:12.964Z,0
2019-03-08T20:44:40.919Z,0
2019-03-08T20:48:08.899Z,0
2019-03-08T20:51:36.787Z,0
2019-03-08T20:55:04.767Z,0
2019-03-08T20:58:33.629Z,0
2019-03-08T21:02:01.596Z,0
2019-03-08T21:05:29.452Z,0
2019-03-08T21:08:57.336Z,0
2019-03-08T21:12:25.273Z,0
2019-03-08T21:15:53.176Z,0
2019-03-08T21:19:21.113Z,0
2019-03-08T21:22:49.067Z,0
2019-03-08T21:26:17.052Z,0
2019-03-08T21:29:44.908Z,0
2019-03-08T21:33:12.847Z,0
2019-03-08T21:36:40.725Z,0
2019-03-08T21:40:08.593Z,0
2019-03-08T21:43:36.461Z,0
2019-03-08T21:47:04.319Z,0
2019-03-08T21:50:32.170Z,0
2019-03-08T21:54:02.026Z,0
2019-03-08T21:57:29.968Z,0
2019-03-08T22:00:58.549Z,0
2019-03-08T22:04:26.443Z,0
2019-03-08T22:07:55.353Z,0
2019-03-08T22:11:23.208Z,0
2019-03-08T22:14:51.083Z,0
2019-03-08T22:18:19.940Z,0
2019-03-08T22:21:47.806Z,0
2019-03-08T22:25:15.682Z,0
2019-03-08T22:28:43.564Z,0
2019-03-08T22:32:18.952Z,0
2019-03-08T22:35:46.808Z,0
2019-03-08T22:39:14.660Z,0
2019-03-08T22:42:43.584Z,0
2019-03-08T22:46:11.433Z,0
2019-03-08T22:49:39.280Z,0
2019-03-08T22:53:07.123Z,0
2019-03-08T22:56:34.998Z,0
2019-03-08T23:00:02.847Z,0
